Погода Серникина неделю

Люблинское воеводство, Польша

18 - 24 мая
  • 18мая
    Сегодня
    +7°
    +23°
    Облачно с прояснениями
    ВремяПогодаТемператураВлажностьДавлениеВетер, м/сВероятность осадков
    02:00Ясно и безоблачно+9°C57 %748 мм3.4 м/с2 %
    05:00Ясно и безоблачно+8°C60 %748 мм3.5 м/с2 %
    08:00Ясно и безоблачно+16°C50 %748 мм3.8 м/с2 %
    11:00Практически безоблачно+20°C41 %748 мм4.7 м/с2 %
    14:00Облачно с прояснениями+22°C34 %747 мм3.8 м/с3 %
    17:00Облачно с прояснениями+22°C38 %747 мм3.9 м/с9 %
    20:00Небольшая облачность+18°C59 %747 мм3.1 м/с3 %
    23:00Ясно и безоблачно+12°C81 %747 мм1.8 м/с2 %
  • 19мая
    Воскресенье
    +9°
    +24°
    Облачно с прояснениями
    ВремяПогодаТемператураВлажностьДавлениеВетер, м/сВероятность осадков
    02:00Ясно и безоблачно+9°C90 %746 мм1.9 м/с2 %
    05:00Ясно и безоблачно+7°C92 %746 мм2.1 м/с2 %
    08:00Облачно с прояснениями+16°C69 %747 мм1.7 м/с3 %
    11:00Практически безоблачно+21°C53 %746 мм2.0 м/с17 %
    14:00Облачно с прояснениями+24°C45 %745 мм2.1 м/с12 %
    17:00Облачно с прояснениями+23°C41 %744 мм2.3 м/с30 %
    20:00Облачно с прояснениями+19°C65 %744 мм1.6 м/с34 %
    23:00Облачно с прояснениями+14°C86 %744 мм2.1 м/с8 %
  • 20мая
    Понедельник
    +10°
    +26°
    Облачно с прояснениями
    ВремяПогодаТемператураВлажностьДавлениеВетер, м/сВероятность осадков
    02:00Ясно и безоблачно+11°C93 %744 мм2.1 м/с6 %
    05:00Практически безоблачно+10°C96 %744 мм1.7 м/с6 %
    08:00Практически безоблачно+18°C76 %745 мм0.7 м/с7 %
    11:00Небольшая облачность+23°C58 %746 мм0.3 м/с29 %
    14:00Облачно с прояснениями+25°C44 %745 мм1.6 м/с39 %
    17:00Практически безоблачно+25°C41 %745 мм1.6 м/с39 %
    20:00Облачно с прояснениями+21°C60 %745 мм2.2 м/с24 %
    23:00Облачно с прояснениями+15°C83 %746 мм2.0 м/с7 %
  • 21мая
    Вторник
    +12°
    +27°
    Практически безоблачно
    ВремяПогодаТемператураВлажностьДавлениеВетер, м/сВероятность осадков
    02:00Облачно с прояснениями+12°C92 %746 мм1.9 м/с4 %
    05:00Практически безоблачно+11°C97 %746 мм2.1 м/с2 %
    08:00Ясно и безоблачно+19°C74 %747 мм2.2 м/с2 %
    11:00Ясно и безоблачно+25°C45 %747 мм2.0 м/с17 %
    14:00Практически безоблачно+27°C38 %746 мм2.0 м/с19 %
    17:00Облачно с прояснениями+26°C36 %744 мм2.4 м/с17 %
    20:00Небольшая облачность+23°C46 %744 мм4.2 м/с12 %
    23:00Практически безоблачно+17°C65 %744 мм3.4 м/с4 %
  • 22мая
    Среда
    +12°
    +28°
    Практически безоблачно
    ВремяПогодаТемператураВлажностьДавлениеВетер, м/сВероятность осадков
    02:00Практически безоблачно+13°C83 %744 мм3.8 м/с2 %
    05:00Ясно и безоблачно+13°C89 %743 мм4.0 м/с2 %
    08:00Ясно и безоблачно+20°C63 %744 мм3.9 м/с9 %
    11:00Ясно и безоблачно+24°C41 %743 мм5.3 м/с24 %
    14:00Практически безоблачно+26°C37 %742 мм6.3 м/с27 %
    17:00Пасмурно, сплошная облачность+27°C36 %742 мм5.9 м/с33 %
    20:00Пасмурно, дождь+20°C77 %743 мм2.9 м/с31 %
    23:00Пасмурно, дождь+15°C90 %743 мм3.7 м/с24 %
Мы используем cookies
Соглашаюсь